createdAt,value
2023-02-07T00:01:50.892Z,2.50
2023-02-07T00:04:19.967Z,2.80
2023-02-07T00:06:48.616Z,2.90
2023-02-07T00:09:17.628Z,2.90
2023-02-07T00:11:48.388Z,2.80
2023-02-07T00:14:17.177Z,2.43
2023-02-07T00:16:46.033Z,3.50
2023-02-07T00:19:16.080Z,3.13
2023-02-07T00:21:44.871Z,2.13
2023-02-07T00:24:14.376Z,3.23
2023-02-07T00:26:43.425Z,3.27
2023-02-07T00:29:13.576Z,2.70
2023-02-07T00:31:42.613Z,3.63
2023-02-07T00:34:13.015Z,2.67
2023-02-07T00:36:42.317Z,3.37
2023-02-07T00:39:15.704Z,2.73
2023-02-07T00:41:45.219Z,2.90
2023-02-07T00:44:16.155Z,3.70
2023-02-07T00:46:45.260Z,3.10
2023-02-07T00:49:15.029Z,2.53
2023-02-07T00:51:44.059Z,3.13
2023-02-07T00:54:13.222Z,2.90
2023-02-07T00:56:42.153Z,2.90
2023-02-07T00:59:12.892Z,3.17
2023-02-07T01:01:43.898Z,2.20
2023-02-07T01:04:13.133Z,3.97
2023-02-07T01:06:42.960Z,2.77
2023-02-07T01:09:12.227Z,3.00
2023-02-07T01:11:41.346Z,2.60
2023-02-07T01:14:19.349Z,2.37
2023-02-07T01:16:50.391Z,3.17
2023-02-07T01:19:20.002Z,3.07
2023-02-07T01:21:49.492Z,2.43
2023-02-07T01:24:19.124Z,2.53
2023-02-07T01:26:51.487Z,2.33
2023-02-07T01:29:20.450Z,3.23
2023-02-07T01:31:51.964Z,2.43
2023-02-07T01:34:24.923Z,3.07
2023-02-07T01:36:54.636Z,2.20
2023-02-07T01:39:23.487Z,3.30
2023-02-07T01:42:03.967Z,2.53
2023-02-07T01:45:02.249Z,2.37
2023-02-07T01:47:33.615Z,2.70
2023-02-07T01:50:12.182Z,2.80
2023-02-07T01:52:43.142Z,2.57
2023-02-07T01:55:16.061Z,3.40
2023-02-07T01:57:46.176Z,3.20
2023-02-07T02:00:20.924Z,3.60
2023-02-07T02:02:51.862Z,2.00
2023-02-07T02:05:31.795Z,2.23
2023-02-07T02:08:01.288Z,2.70
2023-02-07T02:10:43.232Z,3.23
2023-02-07T02:13:23.546Z,2.40
2023-02-07T02:16:00.192Z,3.47
2023-02-07T02:18:46.112Z,2.80
2023-02-07T02:21:52.878Z,2.77
2023-02-07T02:24:51.601Z,2.70
2023-02-07T02:27:32.518Z,2.57
2023-02-07T02:30:17.028Z,3.13
2023-02-07T02:33:12.543Z,3.20
2023-02-07T02:35:51.573Z,2.87
2023-02-07T02:38:28.764Z,2.53
2023-02-07T02:41:00.924Z,2.97
2023-02-07T02:43:36.685Z,2.23
2023-02-07T02:46:18.604Z,2.47
2023-02-07T02:48:50.246Z,1.93
2023-02-07T02:51:19.334Z,2.47
2023-02-07T02:53:54.983Z,2.73
2023-02-07T02:56:54.696Z,1.93
2023-02-07T02:59:43.560Z,3.47
2023-02-07T03:02:22.680Z,2.53
2023-02-07T03:05:13.312Z,2.80
2023-02-07T03:07:51.706Z,2.40
2023-02-07T03:10:31.068Z,2.70
2023-02-07T03:13:11.200Z,2.30
2023-02-07T03:15:48.507Z,2.13
2023-02-07T03:18:20.754Z,2.47
2023-02-07T03:20:53.998Z,2.27
2023-02-07T03:23:23.354Z,2.20
2023-02-07T03:25:53.630Z,2.47
2023-02-07T03:28:23.777Z,2.77
2023-02-07T03:30:53.636Z,2.30
2023-02-07T03:33:23.525Z,2.10
2023-02-07T03:35:58.007Z,2.20
2023-02-07T03:38:27.552Z,2.90
2023-02-07T03:41:00.336Z,2.93
2023-02-07T03:43:31.482Z,2.70
2023-02-07T03:46:10.205Z,2.40
2023-02-07T03:48:39.400Z,3.10
2023-02-07T03:51:14.236Z,3.20
2023-02-07T03:53:43.123Z,2.40
2023-02-07T03:56:11.999Z,2.13
2023-02-07T03:58:41.114Z,2.17
2023-02-07T04:01:10.116Z,2.40
2023-02-07T04:03:38.999Z,1.93
2023-02-07T04:06:09.569Z,2.50
2023-02-07T04:08:38.487Z,2.60
2023-02-07T04:11:10.300Z,1.90
2023-02-07T04:13:39.650Z,2.73
2023-02-07T04:16:10.243Z,1.90
2023-02-07T04:18:39.730Z,2.63
2023-02-07T04:21:11.383Z,2.40
2023-02-07T04:23:42.587Z,2.37
2023-02-07T04:26:12.053Z,2.70
2023-02-07T04:28:41.832Z,3.00
2023-02-07T04:31:11.306Z,2.17
2023-02-07T04:33:57.526Z,3.43
2023-02-07T04:36:29.711Z,2.20
2023-02-07T04:38:59.422Z,2.80
2023-02-07T04:41:28.827Z,2.37
2023-02-07T04:43:58.129Z,2.90
2023-02-07T04:46:30.096Z,2.23
2023-02-07T04:48:59.152Z,2.83
2023-02-07T04:51:30.326Z,1.97
2023-02-07T04:53:59.427Z,2.90
2023-02-07T04:56:28.514Z,2.90
2023-02-07T04:58:57.393Z,2.40
2023-02-07T05:01:27.202Z,2.93
2023-02-07T05:03:56.430Z,3.17
2023-02-07T05:06:25.736Z,2.17
2023-02-07T05:09:12.647Z,2.83
2023-02-07T05:11:41.748Z,2.53
2023-02-07T05:14:10.902Z,2.20
2023-02-07T05:16:39.977Z,2.63
2023-02-07T05:19:09.138Z,2.60
2023-02-07T05:21:39.771Z,2.00
2023-02-07T05:24:10.596Z,2.73
2023-02-07T05:26:40.526Z,2.40
2023-02-07T05:29:09.599Z,3.60
2023-02-07T05:31:55.614Z,2.60
2023-02-07T05:34:25.342Z,2.43
2023-02-07T05:36:55.236Z,2.47
2023-02-07T05:39:26.280Z,3.10
2023-02-07T05:41:55.583Z,2.07
2023-02-07T05:44:24.836Z,2.23
2023-02-07T05:47:01.589Z,3.07
2023-02-07T05:49:30.555Z,2.50
2023-02-07T05:51:59.851Z,2.57
2023-02-07T05:54:30.660Z,3.47
2023-02-07T05:56:59.883Z,3.13
2023-02-07T05:59:29.135Z,3.60
2023-02-07T06:02:01.554Z,2.60
2023-02-07T06:04:30.461Z,2.60
2023-02-07T06:06:59.952Z,2.10
2023-02-07T06:09:30.772Z,3.30
2023-02-07T06:11:59.895Z,3.20
2023-02-07T06:14:28.982Z,2.37
2023-02-07T06:16:58.079Z,3.27
2023-02-07T06:19:27.596Z,2.57
2023-02-07T06:21:56.844Z,2.87
2023-02-07T06:24:27.826Z,3.10
2023-02-07T06:26:58.584Z,4.00
2023-02-07T06:29:29.714Z,2.47
2023-02-07T06:32:00.850Z,2.40
2023-02-07T06:34:29.649Z,2.40
2023-02-07T06:37:02.215Z,2.23
2023-02-07T06:39:31.728Z,2.20
2023-02-07T06:42:02.215Z,2.43
2023-02-07T06:44:30.951Z,3.17
2023-02-07T06:47:00.356Z,2.87
2023-02-07T06:49:29.137Z,3.20
2023-02-07T06:52:00.754Z,1.77
2023-02-07T06:54:30.201Z,2.37
2023-02-07T06:56:59.498Z,2.70
2023-02-07T06:59:29.726Z,2.73
2023-02-07T07:02:00.757Z,2.20
2023-02-07T07:04:29.757Z,2.37
2023-02-07T07:06:58.854Z,3.20
2023-02-07T07:09:29.386Z,3.20
2023-02-07T07:11:58.479Z,3.10
2023-02-07T07:14:29.933Z,3.00
2023-02-07T07:17:03.315Z,2.10
2023-02-07T07:19:32.397Z,2.10
2023-02-07T07:22:37.776Z,2.00
2023-02-07T07:25:04.836Z,2.20
2023-02-07T07:27:33.900Z,3.20
2023-02-07T07:30:30.712Z,2.87
2023-02-07T07:33:00.695Z,1.77
2023-02-07T07:35:30.193Z,3.40
2023-02-07T07:38:07.557Z,2.50
2023-02-07T07:40:36.894Z,2.93
2023-02-07T07:43:12.432Z,2.73
2023-02-07T07:45:54.336Z,2.67
2023-02-07T07:48:25.892Z,2.07
2023-02-07T07:50:56.201Z,3.20
2023-02-07T07:53:25.364Z,1.97
2023-02-07T07:55:56.242Z,3.30
2023-02-07T07:58:27.379Z,3.77
2023-02-07T08:01:02.651Z,2.53
2023-02-07T08:03:33.294Z,2.77
2023-02-07T08:06:02.449Z,2.17
2023-02-07T08:08:31.341Z,2.33
2023-02-07T08:11:02.609Z,3.67
2023-02-07T08:13:33.151Z,3.07
2023-02-07T08:16:02.771Z,2.50
2023-02-07T08:18:36.024Z,2.87
2023-02-07T08:21:05.635Z,3.30
2023-02-07T08:23:35.141Z,3.40
2023-02-07T08:26:04.549Z,2.63
2023-02-07T08:28:34.843Z,4.17
2023-02-07T08:31:04.487Z,2.83
2023-02-07T08:33:34.900Z,3.13
2023-02-07T08:36:14.119Z,3.17
2023-02-07T08:38:42.830Z,3.40
2023-02-07T08:41:11.985Z,3.17
2023-02-07T08:43:42.040Z,3.37
2023-02-07T08:46:17.218Z,2.80
2023-02-07T08:48:50.472Z,3.03
2023-02-07T08:53:49.306Z,2.30
2023-02-07T08:56:18.701Z,2.57
2023-02-07T08:58:47.842Z,2.83
2023-02-07T09:01:17.297Z,3.30
2023-02-07T09:03:46.687Z,3.00
2023-02-07T09:06:20.251Z,3.20
2023-02-07T09:08:52.672Z,3.07
2023-02-07T09:11:22.339Z,3.20
2023-02-07T09:13:59.154Z,2.70
2023-02-07T09:16:28.389Z,3.63
2023-02-07T09:18:58.868Z,2.90
2023-02-07T09:21:31.665Z,2.70
2023-02-07T09:24:01.090Z,2.77
2023-02-07T09:26:32.520Z,2.33
2023-02-07T09:29:01.901Z,2.97
2023-02-07T09:31:30.792Z,2.63
2023-02-07T09:34:00.327Z,3.30
2023-02-07T09:36:31.321Z,3.77
2023-02-07T09:39:00.713Z,2.70
2023-02-07T09:41:35.910Z,2.90
2023-02-07T09:44:12.489Z,3.10
2023-02-07T09:46:46.594Z,2.63
2023-02-07T09:49:24.975Z,2.53
2023-02-07T09:51:56.775Z,3.27
2023-02-07T09:54:29.219Z,2.63
2023-02-07T09:57:04.077Z,3.73
2023-02-07T09:59:44.025Z,2.93
2023-02-07T10:02:19.703Z,2.97
2023-02-07T10:04:50.208Z,3.20
2023-02-07T10:07:23.636Z,3.00
2023-02-07T10:10:04.877Z,3.43
2023-02-07T10:12:55.095Z,4.33
2023-02-07T10:15:40.583Z,2.80
2023-02-07T10:18:31.542Z,3.00
2023-02-07T10:21:06.294Z,3.30
2023-02-07T10:23:44.271Z,3.07
2023-02-07T10:26:18.587Z,3.03
2023-02-07T10:29:19.479Z,3.27
2023-02-07T10:31:50.525Z,3.30
2023-02-07T10:34:21.751Z,3.33
2023-02-07T10:36:53.406Z,3.27
2023-02-07T10:39:28.230Z,3.20
2023-02-07T10:41:59.695Z,3.90
2023-02-07T10:44:29.803Z,2.73
2023-02-07T10:47:01.468Z,3.10
2023-02-07T10:49:32.091Z,3.37
2023-02-07T10:52:19.096Z,3.17
2023-02-07T10:54:57.035Z,3.37
2023-02-07T10:57:26.895Z,2.70
2023-02-07T11:00:01.688Z,3.80
2023-02-07T11:02:49.103Z,3.43
2023-02-07T11:05:42.468Z,3.03
2023-02-07T11:08:27.563Z,2.77
2023-02-07T11:10:59.325Z,2.97
2023-02-07T11:13:33.152Z,3.30
2023-02-07T11:16:04.348Z,2.50
2023-02-07T11:18:45.690Z,3.10
2023-02-07T11:21:29.707Z,3.00
2023-02-07T11:24:02.139Z,3.20
2023-02-07T11:26:33.069Z,3.00
2023-02-07T11:29:08.401Z,3.10
2023-02-07T11:31:39.261Z,3.60
2023-02-07T11:34:30.377Z,3.07
2023-02-07T11:37:13.181Z,3.17
2023-02-07T11:39:42.794Z,3.30
2023-02-07T11:42:16.232Z,2.47
2023-02-07T11:44:47.024Z,3.50
2023-02-07T11:47:19.103Z,2.90
2023-02-07T11:49:50.755Z,3.27
2023-02-07T11:52:20.359Z,3.40
2023-02-07T11:54:52.430Z,2.83
2023-02-07T11:57:23.684Z,3.67
2023-02-07T12:00:08.156Z,2.53
2023-02-07T12:02:43.129Z,2.97
2023-02-07T12:05:20.542Z,2.60
2023-02-07T12:07:51.510Z,2.70
2023-02-07T12:10:25.310Z,2.40
2023-02-07T12:13:01.293Z,3.00
2023-02-07T12:15:34.443Z,2.57
2023-02-07T12:18:07.674Z,3.00
2023-02-07T12:20:41.975Z,3.13
2023-02-07T12:23:40.417Z,2.60
2023-02-07T12:26:07.310Z,3.33
2023-02-07T12:28:42.244Z,2.23
2023-02-07T12:31:20.600Z,3.00
2023-02-07T12:33:54.252Z,2.93
2023-02-07T12:36:28.585Z,2.80
2023-02-07T12:39:02.694Z,2.47
2023-02-07T12:41:35.736Z,2.50
2023-02-07T12:44:14.500Z,2.20
2023-02-07T12:46:56.075Z,2.97
2023-02-07T12:49:42.102Z,2.60
2023-02-07T12:52:21.622Z,2.93
2023-02-07T12:55:00.350Z,2.63
2023-02-07T12:57:36.248Z,2.47
2023-02-07T13:00:14.297Z,2.80
2023-02-07T13:02:56.912Z,2.10
2023-02-07T13:05:58.172Z,2.73
2023-02-07T13:08:35.256Z,2.70
2023-02-07T13:11:10.393Z,2.60
2023-02-07T13:13:44.496Z,3.20
2023-02-07T13:16:19.923Z,2.90
2023-02-07T13:18:56.108Z,2.20
2023-02-07T13:21:29.509Z,2.00
2023-02-07T13:24:02.510Z,2.23
2023-02-07T13:26:32.866Z,2.10
2023-02-07T13:29:03.911Z,2.30
2023-02-07T13:31:38.893Z,2.17
2023-02-07T13:34:15.633Z,2.10
2023-02-07T13:36:45.977Z,2.03
2023-02-07T13:39:23.577Z,2.20
2023-02-07T13:42:01.141Z,2.20
2023-02-07T13:44:38.464Z,2.90
2023-02-07T13:47:29.040Z,2.13
2023-02-07T13:50:05.767Z,2.03
2023-02-07T13:52:39.449Z,2.23
2023-02-07T13:55:18.786Z,1.77
2023-02-07T13:58:05.215Z,1.93
2023-02-07T14:00:40.147Z,2.30
2023-02-07T14:03:21.223Z,1.80
2023-02-07T14:05:49.860Z,1.93
2023-02-07T14:08:24.969Z,1.93
2023-02-07T14:10:55.604Z,2.53
2023-02-07T14:13:30.663Z,1.90
2023-02-07T14:16:08.825Z,1.97
2023-02-07T14:18:51.530Z,2.27
2023-02-07T14:21:42.248Z,2.07
2023-02-07T14:24:33.546Z,2.13
2023-02-07T14:27:04.683Z,2.20
2023-02-07T14:29:54.746Z,1.97
2023-02-07T14:32:40.868Z,1.87
2023-02-07T14:35:32.855Z,2.43
2023-02-07T14:38:08.766Z,2.70
2023-02-07T14:41:09.460Z,2.37
2023-02-07T14:44:06.395Z,1.63
2023-02-07T14:46:39.381Z,1.80
2023-02-07T14:49:09.546Z,2.63
2023-02-07T14:51:44.403Z,2.43
2023-02-07T14:54:18.211Z,2.37
2023-02-07T14:56:51.504Z,3.20
2023-02-07T14:59:29.225Z,1.90
2023-02-07T15:01:58.227Z,2.30
2023-02-07T15:04:36.957Z,2.30
2023-02-07T15:07:12.373Z,2.10
2023-02-07T15:09:40.866Z,1.80
2023-02-07T15:12:22.304Z,2.70
2023-02-07T15:14:57.107Z,2.07
2023-02-07T15:17:33.440Z,1.97
2023-02-07T15:20:08.240Z,2.10
2023-02-07T15:22:37.848Z,2.83
2023-02-07T15:25:06.930Z,2.10
2023-02-07T15:27:35.141Z,2.50
2023-02-07T15:30:06.844Z,1.60
2023-02-07T15:32:36.404Z,1.97
2023-02-07T15:35:30.593Z,2.23
2023-02-07T15:38:19.014Z,1.83
2023-02-07T15:40:47.283Z,1.70
2023-02-07T15:43:26.582Z,2.23
2023-02-07T15:46:15.968Z,1.90
2023-02-07T15:48:49.932Z,2.20
2023-02-07T15:51:21.175Z,2.10
2023-02-07T15:53:52.884Z,2.07
2023-02-07T15:56:21.743Z,2.30
2023-02-07T15:58:51.993Z,1.97
2023-02-07T16:01:34.037Z,2.27
2023-02-07T16:04:07.658Z,2.23
2023-02-07T16:06:36.710Z,2.33
2023-02-07T16:09:44.722Z,2.30
2023-02-07T16:12:35.858Z,2.80
2023-02-07T16:15:25.028Z,2.87
2023-02-07T16:18:01.110Z,3.23
2023-02-07T16:20:31.586Z,3.03
2023-02-07T16:23:02.506Z,3.43
2023-02-07T16:25:35.407Z,2.97
2023-02-07T16:28:06.131Z,3.43
2023-02-07T16:30:36.841Z,3.10
2023-02-07T16:33:06.653Z,3.40
2023-02-07T16:35:35.753Z,2.70
2023-02-07T16:38:04.905Z,3.10
2023-02-07T16:40:35.318Z,2.67
2023-02-07T16:43:05.874Z,2.20
2023-02-07T16:45:35.181Z,2.60
2023-02-07T16:48:04.355Z,3.57
2023-02-07T16:50:33.477Z,3.87
2023-02-07T16:53:02.453Z,3.13
2023-02-07T16:55:31.729Z,4.73
2023-02-07T16:58:03.942Z,4.63
2023-02-07T17:00:33.392Z,5.27
2023-02-07T17:03:02.279Z,6.20
2023-02-07T17:05:30.774Z,4.80
2023-02-07T17:07:59.928Z,5.73
2023-02-07T17:10:30.782Z,5.40
2023-02-07T17:13:00.256Z,5.30
2023-02-07T17:15:34.220Z,5.53
2023-02-07T17:18:03.796Z,4.33
2023-02-07T17:20:35.823Z,4.20
2023-02-07T17:23:05.362Z,4.93
2023-02-07T17:25:47.654Z,5.90
2023-02-07T17:28:17.640Z,6.10
2023-02-07T17:30:47.918Z,7.80
2023-02-07T17:33:17.418Z,6.33
2023-02-07T17:35:46.879Z,4.43
2023-02-07T17:38:21.666Z,5.63
2023-02-07T17:40:58.177Z,6.57
2023-02-07T17:43:26.552Z,5.40
2023-02-07T17:45:56.175Z,4.87
2023-02-07T17:48:24.373Z,4.07
2023-02-07T17:50:55.925Z,3.83
2023-02-07T17:53:24.968Z,4.13
2023-02-07T17:55:53.211Z,3.67
2023-02-07T17:58:21.387Z,3.63
2023-02-07T18:00:49.615Z,4.00
2023-02-07T18:03:20.418Z,3.40
2023-02-07T18:05:48.548Z,4.10
2023-02-07T18:08:16.899Z,4.07
2023-02-07T18:10:45.111Z,3.90
2023-02-07T18:13:13.328Z,3.07
2023-02-07T18:15:41.677Z,2.97
2023-02-07T18:18:10.980Z,3.23
2023-02-07T18:20:40.994Z,3.90
2023-02-07T18:23:11.486Z,3.23
2023-02-07T18:25:39.665Z,3.40
2023-02-07T18:28:07.877Z,2.90
2023-02-07T18:30:36.074Z,3.97
2023-02-07T18:33:04.317Z,3.37
2023-02-07T18:35:33.796Z,3.63
2023-02-07T18:38:03.932Z,3.27
2023-02-07T18:40:32.186Z,2.80
2023-02-07T18:43:00.464Z,2.90
2023-02-07T18:45:28.872Z,3.77
2023-02-07T18:47:57.055Z,3.73
2023-02-07T18:50:25.663Z,4.00
2023-02-07T18:52:54.660Z,3.40
2023-02-07T18:55:24.236Z,4.17
2023-02-07T18:57:55.591Z,3.97
2023-02-07T19:00:23.940Z,4.03
2023-02-07T19:02:52.157Z,3.33
2023-02-07T19:05:20.778Z,3.40
2023-02-07T19:07:49.082Z,4.27
2023-02-07T19:10:17.449Z,3.10
2023-02-07T19:12:46.967Z,4.03
2023-02-07T19:15:15.348Z,3.30
2023-02-07T19:17:43.592Z,3.50
2023-02-07T19:20:12.544Z,3.60
2023-02-07T19:22:41.463Z,3.73
2023-02-07T19:25:10.203Z,5.00
2023-02-07T19:27:38.408Z,3.90
2023-02-07T19:30:09.262Z,4.37
2023-02-07T19:32:37.990Z,3.90
2023-02-07T19:35:06.643Z,4.00
2023-02-07T19:37:34.871Z,3.40
2023-02-07T19:40:03.123Z,5.63
2023-02-07T19:42:31.274Z,4.00
2023-02-07T19:44:59.403Z,4.27
2023-02-07T19:47:29.172Z,3.40
2023-02-07T19:49:57.362Z,3.70
2023-02-07T19:52:25.556Z,3.30
2023-02-07T19:54:55.817Z,3.47
2023-02-07T19:57:24.141Z,2.97
2023-02-07T19:59:52.308Z,3.43
2023-02-07T20:02:20.516Z,3.73
2023-02-07T20:04:54.553Z,3.30
2023-02-07T20:07:22.986Z,2.93
2023-02-07T20:09:51.224Z,3.50
2023-02-07T20:12:19.579Z,3.37
2023-02-07T20:14:47.761Z,2.80
2023-02-07T20:17:15.916Z,3.10
2023-02-07T20:19:44.076Z,4.00
2023-02-07T20:22:13.727Z,4.40
2023-02-07T20:24:42.041Z,3.70
2023-02-07T20:27:10.237Z,3.20
2023-02-07T20:29:38.579Z,3.70
2023-02-07T20:32:07.048Z,3.73
2023-02-07T20:34:38.234Z,3.87
2023-02-07T20:37:06.406Z,3.30
2023-02-07T20:39:35.984Z,4.07
2023-02-07T20:42:04.696Z,3.20
2023-02-07T20:44:32.850Z,3.93
2023-02-07T20:47:01.237Z,4.47
2023-02-07T20:49:31.131Z,3.90
2023-02-07T20:52:00.358Z,4.00
2023-02-07T20:54:30.152Z,4.07
2023-02-07T20:57:00.273Z,3.63
2023-02-07T20:59:30.118Z,3.60
2023-02-07T21:01:58.493Z,3.27
2023-02-07T21:04:26.937Z,2.90
2023-02-07T21:06:55.250Z,3.00
2023-02-07T21:09:23.826Z,4.50
2023-02-07T21:11:53.379Z,4.77
2023-02-07T21:14:25.665Z,3.23
2023-02-07T21:16:54.064Z,2.73
2023-02-07T21:19:22.789Z,4.00
2023-02-07T21:21:51.902Z,3.70
2023-02-07T21:24:20.342Z,3.53
2023-02-07T21:26:48.969Z,3.83
2023-02-07T21:29:18.114Z,3.90
2023-02-07T21:31:48.300Z,3.47
2023-02-07T21:34:17.916Z,5.30
2023-02-07T21:36:46.312Z,3.13
2023-02-07T21:39:14.859Z,3.77
2023-02-07T21:41:45.933Z,5.00
2023-02-07T21:44:15.108Z,5.27
2023-02-07T21:46:46.076Z,4.63
2023-02-07T21:49:17.899Z,5.33
2023-02-07T21:51:48.198Z,4.03
2023-02-07T21:54:16.927Z,5.13
2023-02-07T21:56:45.905Z,3.10
2023-02-07T21:59:15.959Z,4.20
2023-02-07T22:01:44.661Z,3.90
2023-02-07T22:04:14.342Z,4.47
2023-02-07T22:06:45.009Z,3.50
2023-02-07T22:09:14.319Z,3.60
2023-02-07T22:11:42.824Z,5.07
2023-02-07T22:14:12.452Z,3.70
2023-02-07T22:16:40.891Z,4.60
2023-02-07T22:19:11.195Z,2.77
2023-02-07T22:21:40.318Z,4.67
2023-02-07T22:24:11.703Z,3.50
2023-02-07T22:26:40.228Z,2.90
2023-02-07T22:29:09.484Z,3.67
2023-02-07T22:31:39.775Z,3.73
2023-02-07T22:34:09.460Z,3.93
2023-02-07T22:36:39.683Z,4.37
2023-02-07T22:39:09.464Z,3.63
2023-02-07T22:41:37.877Z,3.73
2023-02-07T22:44:06.364Z,6.00
2023-02-07T22:46:34.572Z,4.00
2023-02-07T22:49:02.672Z,4.30
2023-02-07T22:51:33.034Z,2.70
2023-02-07T22:54:03.873Z,3.47
2023-02-07T22:56:34.533Z,3.60
2023-02-07T22:59:03.018Z,3.30
2023-02-07T23:01:34.371Z,2.97
2023-02-07T23:04:03.184Z,3.27
2023-02-07T23:06:32.526Z,2.57
2023-02-07T23:09:01.036Z,3.00
2023-02-07T23:11:29.361Z,3.03
2023-02-07T23:13:58.928Z,2.70
2023-02-07T23:16:29.813Z,3.17
2023-02-07T23:19:02.836Z,2.70
2023-02-07T23:21:31.546Z,3.27
2023-02-07T23:23:59.799Z,3.43
2023-02-07T23:26:28.640Z,2.80
2023-02-07T23:28:58.601Z,4.27
2023-02-07T23:31:27.234Z,2.63
2023-02-07T23:33:55.556Z,3.13
2023-02-07T23:36:23.977Z,3.03
2023-02-07T23:38:52.386Z,2.73
2023-02-07T23:41:20.783Z,2.97
2023-02-07T23:43:48.974Z,3.30
2023-02-07T23:46:19.176Z,2.90
2023-02-07T23:48:47.419Z,2.70
2023-02-07T23:51:16.512Z,2.90
2023-02-07T23:53:45.331Z,2.80
2023-02-07T23:56:17.228Z,2.50
2023-02-07T23:58:46.137Z,2.70
